createdAt,value
2023-03-04T00:00:12.173Z,93.92
2023-03-04T00:02:39.158Z,93.64
2023-03-04T00:05:06.738Z,94.27
2023-03-04T00:07:33.804Z,94.41
2023-03-04T00:10:01.833Z,93.64
2023-03-04T00:12:28.785Z,93.36
2023-03-04T00:14:55.659Z,93.42
2023-03-04T00:17:22.777Z,94.34
2023-03-04T00:19:49.969Z,93.83
2023-03-04T00:22:16.823Z,93.30
2023-03-04T00:24:43.709Z,93.38
2023-03-04T00:27:29.325Z,93.79
2023-03-04T00:29:57.140Z,94.20
2023-03-04T00:32:24.332Z,94.33
2023-03-04T00:34:51.619Z,93.90
2023-03-04T00:37:18.488Z,93.82
2023-03-04T00:39:46.758Z,94.91
2023-03-04T00:42:13.719Z,95.33
2023-03-04T00:44:40.775Z,94.50
2023-03-04T00:47:07.897Z,95.37
2023-03-04T00:49:34.951Z,94.36
2023-03-04T00:52:01.880Z,95.61
2023-03-04T00:54:28.823Z,96.07
2023-03-04T00:56:55.773Z,96.61
2023-03-04T00:59:22.626Z,97.72
2023-03-04T01:01:49.877Z,97.28
2023-03-04T01:04:16.845Z,97.71
2023-03-04T01:06:43.807Z,98.39
2023-03-04T01:09:10.820Z,99.92
2023-03-04T01:11:38.100Z,100.00
2023-03-04T01:14:05.082Z,99.79
2023-03-04T01:16:32.202Z,99.98
2023-03-04T01:18:59.292Z,100.00
2023-03-04T01:21:26.482Z,100.00
2023-03-04T01:23:53.436Z,99.87
2023-03-04T01:26:20.449Z,98.99
2023-03-04T01:28:48.575Z,99.08
2023-03-04T01:31:15.736Z,100.00
2023-03-04T01:33:42.689Z,100.00
2023-03-04T01:36:09.472Z,99.96
2023-03-04T01:38:36.289Z,100.00
2023-03-04T01:41:03.480Z,100.00
2023-03-04T01:43:31.963Z,100.00
2023-03-04T01:45:59.321Z,100.00
2023-03-04T01:48:29.711Z,100.00
2023-03-04T01:50:56.966Z,100.00
2023-03-04T01:53:26.884Z,100.00
2023-03-04T01:55:57.539Z,100.00
2023-03-04T01:58:28.692Z,100.00
2023-03-04T02:03:30.839Z,100.00
2023-03-04T02:05:57.720Z,100.00
2023-03-04T02:08:25.754Z,99.67
2023-03-04T02:10:54.214Z,99.56
2023-03-04T02:13:21.615Z,100.00
2023-03-04T02:15:49.180Z,100.00
2023-03-04T02:18:22.863Z,99.78
2023-03-04T02:21:04.356Z,100.00
2023-03-04T02:23:52.654Z,100.00
2023-03-04T02:26:25.476Z,100.00
2023-03-04T02:28:54.125Z,100.00
2023-03-04T02:31:43.896Z,100.00
2023-03-04T02:34:20.507Z,100.00
2023-03-04T02:36:51.490Z,100.00
2023-03-04T02:39:21.336Z,100.00
2023-03-04T02:41:54.219Z,100.00
2023-03-04T02:44:30.702Z,100.00
2023-03-04T02:46:58.304Z,100.00
2023-03-04T02:49:28.232Z,100.00
2023-03-04T02:52:05.467Z,100.00
2023-03-04T02:54:32.647Z,100.00
2023-03-04T02:57:02.527Z,100.00
2023-03-04T02:59:29.887Z,100.00
2023-03-04T03:01:57.044Z,100.00
2023-03-04T03:04:25.693Z,100.00
2023-03-04T03:06:53.128Z,100.00
2023-03-04T03:09:20.362Z,100.00
2023-03-04T03:11:47.283Z,100.00
2023-03-04T03:14:14.228Z,100.00
2023-03-04T03:16:41.670Z,100.00
2023-03-04T03:19:08.471Z,100.00
2023-03-04T03:21:35.936Z,100.00
2023-03-04T03:24:03.146Z,100.00
2023-03-04T03:26:29.990Z,100.00
2023-03-04T03:28:56.867Z,100.00
2023-03-04T03:31:23.701Z,100.00
2023-03-04T03:33:50.787Z,100.00
2023-03-04T03:36:17.817Z,100.00
2023-03-04T03:38:44.702Z,100.00
2023-03-04T03:41:11.660Z,100.00
2023-03-04T03:43:38.867Z,100.00
2023-03-04T03:46:05.945Z,100.00
2023-03-04T03:48:33.175Z,100.00
2023-03-04T03:51:00.146Z,100.00
2023-03-04T03:53:27.122Z,100.00
2023-03-04T03:55:53.925Z,100.00
2023-03-04T03:58:20.934Z,100.00
2023-03-04T04:00:47.774Z,100.00
2023-03-04T04:03:18.237Z,100.00
2023-03-04T04:05:45.104Z,100.00
2023-03-04T04:08:14.844Z,100.00
2023-03-04T04:10:42.630Z,100.00
2023-03-04T04:13:10.145Z,100.00
2023-03-04T04:15:38.805Z,100.00
2023-03-04T04:18:06.984Z,100.00
2023-03-04T04:20:34.594Z,100.00
2023-03-04T04:23:02.434Z,100.00
2023-03-04T04:25:29.823Z,100.00
2023-03-04T04:27:56.789Z,100.00
2023-03-04T04:30:23.644Z,100.00
2023-03-04T04:32:50.773Z,100.00
2023-03-04T04:35:18.317Z,100.00
2023-03-04T04:37:45.105Z,100.00
2023-03-04T04:40:12.733Z,100.00
2023-03-04T04:42:39.674Z,100.00
2023-03-04T04:45:07.282Z,100.00
2023-03-04T04:47:34.580Z,100.00
2023-03-04T04:50:01.586Z,100.00
2023-03-04T04:52:28.812Z,100.00
2023-03-04T04:54:55.742Z,100.00
2023-03-04T04:57:22.732Z,100.00
2023-03-04T04:59:49.575Z,100.00
2023-03-04T05:02:16.521Z,100.00
2023-03-04T05:04:43.465Z,100.00
2023-03-04T05:07:10.321Z,100.00
2023-03-04T05:09:37.182Z,100.00
2023-03-04T05:12:04.419Z,100.00
2023-03-04T05:14:31.236Z,100.00
2023-03-04T05:17:16.758Z,100.00
2023-03-04T05:19:43.574Z,100.00
2023-03-04T05:22:10.658Z,100.00
2023-03-04T05:24:37.489Z,100.00
2023-03-04T05:27:04.383Z,100.00
2023-03-04T05:29:31.233Z,100.00
2023-03-04T05:31:58.420Z,100.00
2023-03-04T05:34:25.428Z,100.00
2023-03-04T05:36:52.287Z,100.00
2023-03-04T05:39:19.311Z,100.00
2023-03-04T05:41:46.233Z,100.00
2023-03-04T05:44:13.051Z,100.00
2023-03-04T05:46:40.012Z,100.00
2023-03-04T05:49:06.952Z,100.00
2023-03-04T05:51:38.417Z,100.00
2023-03-04T05:54:05.315Z,100.00
2023-03-04T05:56:33.631Z,100.00
2023-03-04T05:59:00.858Z,100.00
2023-03-04T06:01:27.912Z,100.00
2023-03-04T06:03:54.952Z,100.00
2023-03-04T06:06:21.788Z,100.00
2023-03-04T06:08:48.621Z,100.00
2023-03-04T06:11:15.597Z,100.00
2023-03-04T06:13:42.551Z,100.00
2023-03-04T06:16:10.401Z,100.00
2023-03-04T06:18:37.436Z,100.00
2023-03-04T06:21:04.690Z,100.00
2023-03-04T06:23:31.825Z,100.00
2023-03-04T06:26:00.172Z,100.00
2023-03-04T06:28:27.409Z,100.00
2023-03-04T06:30:56.123Z,100.00
2023-03-04T06:33:23.559Z,100.00
2023-03-04T06:35:54.758Z,100.00
2023-03-04T06:38:21.727Z,100.00
2023-03-04T06:40:49.192Z,100.00
2023-03-04T06:43:16.318Z,100.00
2023-03-04T06:45:43.226Z,100.00
2023-03-04T06:48:10.185Z,100.00
2023-03-04T06:50:37.023Z,100.00
2023-03-04T06:53:03.892Z,100.00
2023-03-04T06:55:31.149Z,100.00
2023-03-04T06:57:57.966Z,100.00
2023-03-04T07:00:25.261Z,100.00
2023-03-04T07:02:55.000Z,100.00
2023-03-04T07:05:22.228Z,100.00
2023-03-04T07:07:50.104Z,100.00
2023-03-04T07:10:18.883Z,100.00
2023-03-04T07:12:46.244Z,99.35
2023-03-04T07:15:13.468Z,100.00
2023-03-04T07:17:40.305Z,100.00
2023-03-04T07:20:07.624Z,100.00
2023-03-04T07:22:34.656Z,100.00
2023-03-04T07:25:02.908Z,100.00
2023-03-04T07:27:29.726Z,100.00
2023-03-04T07:29:56.689Z,100.00
2023-03-04T07:32:23.660Z,100.00
2023-03-04T07:34:52.980Z,100.00
2023-03-04T07:37:19.971Z,100.00
2023-03-04T07:39:47.036Z,99.83
2023-03-04T07:42:13.880Z,100.00
2023-03-04T07:44:40.741Z,100.00
2023-03-04T07:47:07.721Z,100.00
2023-03-04T07:49:34.583Z,99.82
2023-03-04T07:52:05.749Z,99.85
2023-03-04T07:54:33.460Z,99.87
2023-03-04T07:57:00.387Z,99.96
2023-03-04T07:59:27.552Z,100.00
2023-03-04T08:01:54.513Z,99.33
2023-03-04T08:04:21.602Z,98.48
2023-03-04T08:06:49.049Z,98.23
2023-03-04T08:09:16.128Z,98.32
2023-03-04T08:11:43.779Z,98.38
2023-03-04T08:14:12.890Z,97.64
2023-03-04T08:16:40.058Z,98.96
2023-03-04T08:19:07.752Z,96.50
2023-03-04T08:21:35.919Z,97.06
2023-03-04T08:24:08.498Z,97.80
2023-03-04T08:26:43.876Z,98.51
2023-03-04T08:29:14.413Z,99.12
2023-03-04T08:31:41.534Z,98.38
2023-03-04T08:34:10.445Z,97.11
2023-03-04T08:36:37.344Z,96.53
2023-03-04T08:39:06.155Z,100.00
2023-03-04T08:41:33.539Z,100.00
2023-03-04T08:44:01.189Z,94.22
2023-03-04T08:46:28.738Z,92.75
2023-03-04T08:48:55.717Z,92.19
2023-03-04T08:51:23.104Z,93.13
2023-03-04T08:53:50.041Z,94.57
2023-03-04T08:56:17.229Z,92.83
2023-03-04T08:58:44.646Z,92.69
2023-03-04T09:01:13.505Z,93.11
2023-03-04T09:03:41.568Z,93.81
2023-03-04T09:06:10.000Z,93.66
2023-03-04T09:08:36.954Z,92.50
2023-03-04T09:11:03.952Z,89.87
2023-03-04T09:13:32.015Z,90.84
2023-03-04T09:16:00.156Z,92.53
2023-03-04T09:18:28.391Z,91.81
2023-03-04T09:20:55.457Z,90.97
2023-03-04T09:23:22.660Z,91.85
2023-03-04T09:25:50.112Z,91.74
2023-03-04T09:28:18.084Z,89.08
2023-03-04T09:30:45.750Z,87.72
2023-03-04T09:33:49.564Z,90.47
2023-03-04T09:36:26.235Z,88.80
2023-03-04T09:38:55.282Z,89.39
2023-03-04T09:41:46.564Z,92.08
2023-03-04T09:44:37.902Z,89.82
2023-03-04T09:47:12.384Z,90.05
2023-03-04T09:49:42.951Z,88.52
2023-03-04T09:52:21.781Z,89.31
2023-03-04T09:55:13.711Z,90.23
2023-03-04T09:57:53.236Z,89.69
2023-03-04T10:00:41.763Z,88.07
2023-03-04T10:03:21.026Z,87.54
2023-03-04T10:05:50.930Z,88.16
2023-03-04T10:08:23.844Z,87.98
2023-03-04T10:10:53.341Z,86.65
2023-03-04T10:13:32.595Z,85.92
2023-03-04T10:16:03.278Z,85.90
2023-03-04T10:18:39.172Z,85.79
2023-03-04T10:21:20.763Z,85.33
2023-03-04T10:23:48.602Z,85.83
2023-03-04T10:26:20.960Z,87.25
2023-03-04T10:28:49.018Z,87.60
2023-03-04T10:31:20.340Z,85.78
2023-03-04T10:33:47.306Z,86.86
2023-03-04T10:36:39.105Z,87.29
2023-03-04T10:39:08.705Z,94.23
2023-03-04T10:41:35.749Z,86.53
2023-03-04T10:44:15.902Z,84.36
2023-03-04T10:46:48.568Z,86.48
2023-03-04T10:49:20.500Z,85.26
2023-03-04T10:51:50.537Z,85.39
2023-03-04T10:54:25.564Z,82.74
2023-03-04T10:57:06.010Z,82.77
2023-03-04T10:59:51.094Z,80.42
2023-03-04T11:02:27.790Z,80.98
2023-03-04T11:05:07.435Z,82.69
2023-03-04T11:07:54.461Z,78.84
2023-03-04T11:10:41.556Z,80.43
2023-03-04T11:13:23.342Z,79.87
2023-03-04T11:15:59.957Z,77.31
2023-03-04T11:18:38.722Z,76.98
2023-03-04T11:21:08.219Z,77.07
2023-03-04T11:23:47.995Z,74.55
2023-03-04T11:26:19.186Z,74.89
2023-03-04T11:29:04.651Z,76.13
2023-03-04T11:31:40.514Z,76.59
2023-03-04T11:34:16.508Z,76.02
2023-03-04T11:36:59.194Z,77.52
2023-03-04T11:39:44.249Z,78.48
2023-03-04T11:42:26.234Z,76.59
2023-03-04T11:44:53.438Z,76.22
2023-03-04T11:48:11.509Z,75.61
2023-03-04T11:50:45.819Z,73.83
2023-03-04T11:53:47.822Z,74.74
2023-03-04T11:56:32.882Z,74.06
2023-03-04T11:59:12.378Z,74.55
2023-03-04T12:04:52.284Z,77.00
2023-03-04T12:07:43.136Z,74.26
2023-03-04T12:10:31.049Z,73.31
2023-03-04T12:13:22.957Z,75.32
2023-03-04T12:15:56.159Z,74.74
2023-03-04T12:18:35.779Z,76.08
2023-03-04T12:21:17.065Z,75.96
2023-03-04T12:24:11.886Z,75.88
2023-03-04T12:27:06.740Z,75.90
2023-03-04T12:29:57.482Z,75.98
2023-03-04T12:32:51.860Z,74.44
2023-03-04T12:35:30.128Z,72.99
2023-03-04T12:38:31.136Z,73.48
2023-03-04T12:41:33.308Z,73.14
2023-03-04T12:44:12.326Z,73.50
2023-03-04T12:47:12.006Z,73.87
2023-03-04T12:49:55.562Z,75.38
2023-03-04T12:52:49.112Z,75.11
2023-03-04T12:55:19.381Z,75.49
2023-03-04T12:57:46.735Z,74.89
2023-03-04T13:00:13.482Z,73.17
2023-03-04T13:03:08.655Z,73.22
2023-03-04T13:06:13.089Z,72.20
2023-03-04T13:08:58.382Z,73.27
2023-03-04T13:11:34.320Z,73.69
2023-03-04T13:14:09.622Z,73.88
2023-03-04T13:16:40.421Z,73.85
2023-03-04T13:19:47.485Z,74.54
2023-03-04T13:22:38.223Z,74.40
2023-03-04T13:25:29.826Z,72.68
2023-03-04T13:28:05.286Z,73.66
2023-03-04T13:30:35.197Z,74.46
2023-03-04T13:33:10.889Z,73.71
2023-03-04T13:35:47.395Z,73.74
2023-03-04T13:38:36.528Z,73.75
2023-03-04T13:41:22.315Z,74.37
2023-03-04T13:43:53.918Z,74.16
2023-03-04T13:46:20.925Z,74.84
2023-03-04T13:48:50.831Z,75.47
2023-03-04T13:51:30.335Z,75.99
2023-03-04T13:54:00.799Z,75.53
2023-03-04T13:56:37.610Z,75.67
2023-03-04T13:59:07.866Z,76.23
2023-03-04T14:02:10.424Z,75.53
2023-03-04T14:04:43.226Z,76.14
2023-03-04T14:07:33.918Z,76.10
2023-03-04T14:10:04.873Z,76.51
2023-03-04T14:12:38.052Z,76.18
2023-03-04T14:15:22.284Z,77.14
2023-03-04T14:17:53.071Z,76.77
2023-03-04T14:20:41.966Z,76.95
2023-03-04T14:23:27.642Z,75.94
2023-03-04T14:26:06.259Z,76.63
2023-03-04T14:28:33.230Z,76.26
2023-03-04T14:31:00.241Z,75.94
2023-03-04T14:33:33.031Z,75.43
2023-03-04T14:36:02.820Z,76.06
2023-03-04T14:41:09.281Z,76.41
2023-03-04T14:43:46.536Z,76.07
2023-03-04T14:46:17.325Z,77.42
2023-03-04T14:51:55.402Z,76.71
2023-03-04T14:55:00.199Z,76.80
2023-03-04T14:57:32.588Z,75.94
2023-03-04T15:00:15.421Z,75.91
2023-03-04T15:02:43.177Z,77.66
2023-03-04T15:05:31.605Z,77.49
2023-03-04T15:08:02.974Z,77.73
2023-03-04T15:13:08.265Z,76.82
2023-03-04T15:15:40.384Z,77.52
2023-03-04T15:18:18.337Z,77.46
2023-03-04T15:21:00.321Z,78.33
2023-03-04T15:23:29.843Z,77.95
2023-03-04T15:26:00.578Z,76.96
2023-03-04T15:28:35.333Z,77.53
2023-03-04T15:31:02.796Z,76.96
2023-03-04T15:33:29.896Z,77.24
2023-03-04T15:36:02.243Z,78.11
2023-03-04T15:38:30.206Z,77.51
2023-03-04T15:48:56.519Z,78.60
2023-03-04T15:51:23.840Z,79.30
2023-03-04T15:53:52.590Z,79.03
2023-03-04T15:56:28.551Z,79.07
2023-03-04T15:58:59.193Z,80.10
2023-03-04T16:01:26.535Z,79.41
2023-03-04T16:03:54.086Z,80.02
2023-03-04T16:06:24.692Z,80.56
2023-03-04T16:08:52.444Z,79.99
2023-03-04T16:11:22.336Z,81.03
2023-03-04T16:13:49.335Z,79.97
2023-03-04T16:16:16.395Z,81.14
2023-03-04T16:18:43.759Z,80.58
2023-03-04T16:21:15.278Z,79.78
2023-03-04T16:23:46.006Z,80.13
2023-03-04T16:26:18.783Z,81.72
2023-03-04T16:28:45.774Z,81.65
2023-03-04T16:31:15.497Z,82.73
2023-03-04T16:33:42.723Z,100.00
2023-03-04T16:36:29.908Z,79.05
2023-03-04T16:38:59.724Z,79.07
2023-03-04T16:41:30.815Z,79.12
2023-03-04T16:44:01.336Z,80.62
2023-03-04T16:46:28.630Z,80.17
2023-03-04T16:48:55.786Z,81.32
2023-03-04T16:51:24.736Z,81.78
2023-03-04T16:54:02.378Z,96.08
2023-03-04T16:56:30.878Z,81.13
2023-03-04T16:59:17.564Z,80.67
2023-03-04T17:01:44.914Z,80.04
2023-03-04T17:04:11.718Z,81.68
2023-03-04T17:06:39.983Z,82.76
2023-03-04T17:09:08.625Z,83.95
2023-03-04T17:11:36.324Z,84.15
2023-03-04T17:14:03.468Z,84.71
2023-03-04T17:16:30.584Z,100.00
2023-03-04T17:18:57.749Z,83.67
2023-03-04T17:21:27.948Z,83.85
2023-03-04T17:23:54.938Z,83.87
2023-03-04T17:26:22.741Z,84.99
2023-03-04T17:28:50.972Z,85.14
2023-03-04T17:31:20.426Z,84.94
2023-03-04T17:33:48.477Z,85.06
2023-03-04T17:36:16.951Z,85.23
2023-03-04T17:38:44.305Z,85.11
2023-03-04T17:41:16.182Z,85.93
2023-03-04T17:43:49.045Z,85.80
2023-03-04T17:46:19.628Z,85.63
2023-03-04T17:48:46.942Z,85.52
2023-03-04T17:51:13.876Z,85.69
2023-03-04T17:53:41.491Z,87.34
2023-03-04T17:56:11.331Z,87.71
2023-03-04T17:58:39.026Z,87.03
2023-03-04T18:01:17.789Z,87.61
2023-03-04T18:03:44.727Z,88.08
2023-03-04T18:06:11.685Z,89.57
2023-03-04T18:08:38.537Z,87.72
2023-03-04T18:11:05.580Z,87.52
2023-03-04T18:13:32.557Z,87.39
2023-03-04T18:15:59.551Z,88.50
2023-03-04T18:18:26.457Z,89.00
2023-03-04T18:21:00.500Z,87.95
2023-03-04T18:23:28.636Z,88.63
2023-03-04T18:25:55.645Z,87.12
2023-03-04T18:28:22.855Z,88.42
2023-03-04T18:30:54.439Z,88.08
2023-03-04T18:33:21.916Z,88.39
2023-03-04T18:35:50.469Z,88.89
2023-03-04T18:38:17.489Z,90.44
2023-03-04T18:40:44.994Z,88.90
2023-03-04T18:43:12.263Z,89.70
2023-03-04T18:45:39.921Z,89.88
2023-03-04T18:48:06.957Z,90.34
2023-03-04T18:50:36.075Z,89.51
2023-03-04T18:53:04.256Z,90.11
2023-03-04T18:55:32.521Z,90.17
2023-03-04T18:58:01.866Z,90.53
2023-03-04T19:00:29.624Z,90.25
2023-03-04T19:03:03.464Z,90.84
2023-03-04T19:05:50.263Z,90.67
2023-03-04T19:17:03.814Z,91.27
2023-03-04T19:19:46.167Z,91.16
2023-03-04T19:22:28.081Z,90.98
2023-03-04T19:25:46.181Z,91.29
2023-03-04T19:28:56.550Z,90.75
2023-03-04T19:31:36.743Z,91.23
2023-03-04T19:34:06.003Z,91.73
2023-03-04T19:36:42.585Z,90.07
2023-03-04T19:39:18.529Z,91.16
2023-03-04T19:41:47.182Z,91.72
2023-03-04T19:44:31.737Z,91.97
2023-03-04T19:58:55.639Z,92.34
2023-03-04T20:01:34.273Z,94.45
2023-03-04T20:04:09.057Z,92.45
2023-03-04T20:07:12.433Z,92.83
2023-03-04T20:09:55.888Z,92.43
2023-03-04T20:12:49.136Z,93.25
2023-03-04T20:15:17.105Z,93.01
2023-03-04T20:18:14.516Z,93.58
2023-03-04T20:25:04.289Z,93.16
2023-03-04T20:28:15.129Z,91.91
2023-03-04T20:31:24.288Z,92.40
2023-03-04T20:37:32.460Z,94.04
2023-03-04T21:17:50.421Z,95.48
2023-03-04T21:24:15.095Z,95.32
2023-03-04T21:34:52.186Z,94.02
2023-03-04T21:41:57.433Z,95.56
2023-03-04T21:44:45.005Z,94.48
2023-03-04T21:47:18.196Z,93.60
2023-03-04T21:49:52.173Z,94.62
2023-03-04T21:53:07.128Z,96.24
2023-03-04T21:56:05.835Z,95.49
2023-03-04T21:58:42.662Z,94.16
2023-03-04T22:01:48.705Z,94.20
2023-03-04T22:04:54.042Z,94.45
2023-03-04T22:07:53.236Z,94.82
2023-03-04T22:10:29.426Z,95.23
2023-03-04T22:13:21.712Z,94.34
2023-03-04T22:15:51.259Z,93.07
2023-03-04T22:43:00.845Z,93.65
2023-03-04T22:53:31.827Z,93.79
2023-03-04T22:56:54.384Z,94.09
2023-03-04T22:59:27.680Z,93.53
2023-03-04T23:01:56.009Z,94.78
2023-03-04T23:05:20.030Z,93.46
2023-03-04T23:07:48.412Z,94.19
2023-03-04T23:10:30.451Z,94.46
2023-03-04T23:13:34.328Z,94.27
